createdAt,value
2019-05-22T00:01:33.176Z,28.75
2019-05-22T00:04:05.992Z,29.65
2019-05-22T00:06:37.997Z,28.42
2019-05-22T00:09:10.435Z,39.03
2019-05-22T00:11:43.377Z,34.50
2019-05-22T00:14:15.726Z,39.33
2019-05-22T00:16:47.394Z,41.60
2019-05-22T00:19:19.111Z,43.02
2019-05-22T00:21:52.356Z,35.80
2019-05-22T00:24:25.491Z,34.73
2019-05-22T00:26:56.262Z,36.00
2019-05-22T00:29:28.950Z,31.42
2019-05-22T00:31:59.302Z,30.62
2019-05-22T00:34:31.445Z,45.80
2019-05-22T00:37:02.261Z,34.50
2019-05-22T00:39:33.115Z,31.48
2019-05-22T00:42:06.305Z,45.20
2019-05-22T00:44:37.646Z,48.40
2019-05-22T00:47:09.661Z,33.10
2019-05-22T00:49:41.059Z,40.05
2019-05-22T00:52:25.073Z,34.73
2019-05-22T00:55:05.854Z,43.92
2019-05-22T00:57:38.224Z,49.83
2019-05-22T01:00:20.645Z,37.78
2019-05-22T01:02:52.399Z,33.90
2019-05-22T01:05:23.582Z,33.60
2019-05-22T01:07:55.265Z,36.50
2019-05-22T01:10:27.004Z,27.27
2019-05-22T01:13:02.300Z,31.65
2019-05-22T01:15:33.277Z,33.45
2019-05-22T01:18:07.257Z,35.78
2019-05-22T01:20:40.709Z,29.18
2019-05-22T01:25:46.030Z,29.15
2019-05-22T01:28:17.487Z,30.85
2019-05-22T01:30:50.706Z,28.10
2019-05-22T01:33:22.930Z,35.65
2019-05-22T01:36:02.027Z,27.82
2019-05-22T01:38:34.646Z,30.15
2019-05-22T01:41:18.219Z,30.32
2019-05-22T01:43:51.150Z,29.12
2019-05-22T01:46:22.234Z,28.07
2019-05-22T01:48:55.840Z,28.75
2019-05-22T01:51:26.021Z,28.42
2019-05-22T01:53:57.470Z,34.15
2019-05-22T01:56:30.016Z,32.08
2019-05-22T01:59:00.496Z,29.65
2019-05-22T02:01:32.466Z,32.20
2019-05-22T02:04:04.791Z,30.12
2019-05-22T02:06:36.719Z,29.45
2019-05-22T02:09:14.567Z,30.70
2019-05-22T02:11:46.541Z,29.57
2019-05-22T02:14:18.511Z,29.45
2019-05-22T02:16:56.603Z,31.62
2019-05-22T02:19:21.086Z,31.90
2019-05-22T02:21:52.151Z,30.90
2019-05-22T02:24:23.097Z,30.43
2019-05-22T02:26:53.563Z,28.52
2019-05-22T02:29:23.942Z,25.82
2019-05-22T02:31:56.404Z,26.07
2019-05-22T02:34:28.816Z,26.73
2019-05-22T02:37:00.087Z,30.57
2019-05-22T02:39:32.309Z,26.45
2019-05-22T02:42:06.619Z,28.02
2019-05-22T02:44:38.285Z,27.60
2019-05-22T02:47:19.006Z,26.73
2019-05-22T02:49:42.362Z,28.05
2019-05-22T02:52:13.028Z,25.17
2019-05-22T02:54:43.599Z,26.15
2019-05-22T02:57:13.925Z,27.30
2019-05-22T02:59:44.024Z,24.47
2019-05-22T03:02:16.135Z,22.75
2019-05-22T03:05:07.364Z,25.57
2019-05-22T03:07:39.711Z,22.13
2019-05-22T03:10:12.930Z,22.98
2019-05-22T03:12:46.142Z,20.70
2019-05-22T03:15:18.093Z,28.80
2019-05-22T03:17:51.406Z,21.45
2019-05-22T03:20:23.880Z,23.95
2019-05-22T03:23:18.566Z,33.92
2019-05-22T03:25:48.782Z,24.32
2019-05-22T03:28:19.293Z,21.23
2019-05-22T03:30:50.512Z,29.45
2019-05-22T03:33:21.189Z,27.67
2019-05-22T03:35:54.689Z,37.08
2019-05-22T03:40:54.887Z,31.30
2019-05-22T03:43:28.576Z,28.98
2019-05-22T03:46:03.066Z,32.75
2019-05-22T03:48:37.817Z,33.42
2019-05-22T03:51:14.470Z,28.32
2019-05-22T03:53:46.576Z,29.25
2019-05-22T03:56:18.797Z,27.48
2019-05-22T03:58:48.933Z,27.48
2019-05-22T04:01:19.916Z,32.67
2019-05-22T04:03:50.556Z,31.50
2019-05-22T04:06:22.811Z,40.17
2019-05-22T04:08:54.508Z,30.00
2019-05-22T04:11:27.891Z,30.70
2019-05-22T04:13:58.388Z,34.18
2019-05-22T04:16:29.262Z,34.83
2019-05-22T04:19:00.739Z,34.05
2019-05-22T04:21:31.551Z,31.40
2019-05-22T04:24:02.100Z,34.25
2019-05-22T04:26:33.776Z,41.35
2019-05-22T04:29:05.441Z,36.58
2019-05-22T04:31:48.859Z,31.30
2019-05-22T04:34:20.934Z,35.73
2019-05-22T04:36:51.609Z,38.88
2019-05-22T04:39:24.578Z,36.55
2019-05-22T04:41:56.538Z,35.73
2019-05-22T04:44:28.118Z,34.15
2019-05-22T04:46:58.251Z,30.52
2019-05-22T04:49:28.432Z,33.60
2019-05-22T04:51:58.540Z,29.65
2019-05-22T04:54:29.042Z,35.80
2019-05-22T04:56:59.254Z,36.17
2019-05-22T04:59:30.412Z,36.15
2019-05-22T05:02:02.043Z,36.08
2019-05-22T05:04:32.321Z,34.98
2019-05-22T05:07:03.031Z,29.27
2019-05-22T05:09:33.849Z,31.20
2019-05-22T05:12:05.706Z,34.25
2019-05-22T05:14:36.253Z,34.95
2019-05-22T05:17:07.457Z,34.27
2019-05-22T05:19:37.514Z,40.33
2019-05-22T05:22:07.622Z,37.83
2019-05-22T05:24:37.750Z,40.12
2019-05-22T05:27:08.465Z,35.00
2019-05-22T05:29:38.655Z,34.95
2019-05-22T05:32:10.334Z,32.60
2019-05-22T05:34:46.397Z,35.78
2019-05-22T05:37:19.274Z,31.23
2019-05-22T05:39:55.091Z,34.88
2019-05-22T05:42:25.554Z,39.80
2019-05-22T05:44:55.613Z,36.60
2019-05-22T05:47:25.991Z,39.48
2019-05-22T05:49:56.506Z,39.18
2019-05-22T05:52:28.793Z,36.23
2019-05-22T05:55:00.373Z,46.18
2019-05-22T05:57:36.808Z,43.28
2019-05-22T06:00:11.519Z,35.70
2019-05-22T06:02:55.707Z,37.88
2019-05-22T06:05:14.312Z,35.40
2019-05-22T06:07:44.602Z,44.40
2019-05-22T06:10:30.124Z,39.08
2019-05-22T06:13:02.101Z,39.15
2019-05-22T06:15:47.443Z,39.42
2019-05-22T06:18:31.910Z,40.65
2019-05-22T06:21:04.515Z,36.40
2019-05-22T06:23:44.309Z,42.98
2019-05-22T06:26:26.874Z,35.90
2019-05-22T06:28:57.486Z,47.00
2019-05-22T06:31:40.530Z,44.23
2019-05-22T06:34:10.827Z,47.95
2019-05-22T06:36:42.723Z,49.03
2019-05-22T06:39:14.230Z,48.40
2019-05-22T06:41:45.393Z,44.03
2019-05-22T06:44:29.147Z,47.60
2019-05-22T06:49:34.721Z,70.20
2019-05-22T06:52:08.067Z,68.45
2019-05-22T06:54:39.057Z,66.35
2019-05-22T06:57:12.329Z,58.90
2019-05-22T06:59:43.618Z,63.25
2019-05-22T07:02:15.356Z,60.03
2019-05-22T07:04:46.364Z,67.20
2019-05-22T07:07:17.529Z,60.28
2019-05-22T07:09:47.970Z,57.50
2019-05-22T07:12:21.159Z,60.67
2019-05-22T07:15:04.470Z,56.70
2019-05-22T07:17:37.519Z,54.55
2019-05-22T07:20:08.806Z,90.03
2019-05-22T07:22:39.266Z,65.90
2019-05-22T07:25:09.619Z,66.92
2019-05-22T07:27:40.003Z,64.35
2019-05-22T07:30:10.518Z,64.80
2019-05-22T07:32:40.898Z,59.70
2019-05-22T07:35:12.246Z,60.00
2019-05-22T07:37:45.252Z,64.82
2019-05-22T07:40:16.121Z,68.05
2019-05-22T07:42:46.249Z,64.30
2019-05-22T07:45:16.646Z,64.42
2019-05-22T07:47:48.352Z,63.87
2019-05-22T07:50:19.361Z,67.45
2019-05-22T07:52:50.718Z,70.10
2019-05-22T07:55:23.185Z,77.70
2019-05-22T07:58:05.200Z,66.70
2019-05-22T08:00:35.947Z,65.95
2019-05-22T08:03:08.183Z,62.62
2019-05-22T08:05:41.528Z,63.33
2019-05-22T08:08:13.378Z,64.72
2019-05-22T08:10:44.442Z,68.55
2019-05-22T08:13:15.341Z,67.85
2019-05-22T08:15:47.856Z,59.88
2019-05-22T08:18:17.662Z,66.65
2019-05-22T08:20:48.042Z,56.70
2019-05-22T08:23:18.944Z,65.87
2019-05-22T08:25:49.137Z,50.83
2019-05-22T08:28:21.378Z,54.42
2019-05-22T08:30:52.968Z,49.48
2019-05-22T08:33:24.523Z,48.23
2019-05-22T08:35:55.621Z,51.10
2019-05-22T08:38:31.208Z,52.73
2019-05-22T08:41:04.131Z,53.30
2019-05-22T08:43:56.115Z,45.00
2019-05-22T08:46:07.213Z,49.15
2019-05-22T08:48:42.326Z,44.00
2019-05-22T08:51:11.438Z,41.53
2019-05-22T08:53:47.382Z,43.30
2019-05-22T08:56:14.818Z,43.95
2019-05-22T08:58:46.461Z,44.55
2019-05-22T09:01:17.372Z,37.83
2019-05-22T09:03:47.954Z,52.50
2019-05-22T09:06:18.431Z,38.23
2019-05-22T09:08:49.201Z,41.45
2019-05-22T09:11:19.489Z,43.23
2019-05-22T09:13:49.703Z,34.90
2019-05-22T09:16:20.250Z,35.15
2019-05-22T09:18:50.426Z,40.08
2019-05-22T09:21:20.878Z,31.45
2019-05-22T09:23:50.933Z,26.10
2019-05-22T09:26:23.181Z,31.85
2019-05-22T09:28:53.575Z,27.42
2019-05-22T09:31:24.059Z,22.10
2019-05-22T09:33:54.705Z,19.27
2019-05-22T09:36:24.940Z,21.12
2019-05-22T09:38:55.350Z,20.88
2019-05-22T09:41:25.885Z,23.95
2019-05-22T09:43:56.210Z,16.67
2019-05-22T09:46:27.691Z,20.35
2019-05-22T09:48:58.175Z,11.45
2019-05-22T09:51:28.450Z,12.50
2019-05-22T09:53:59.360Z,9.78
2019-05-22T09:56:29.481Z,15.03
2019-05-22T09:58:59.954Z,10.45
2019-05-22T10:01:30.080Z,15.25
2019-05-22T10:04:00.923Z,14.28
2019-05-22T10:06:31.026Z,12.50
2019-05-22T10:09:01.133Z,12.05
2019-05-22T10:11:33.770Z,12.18
2019-05-22T10:14:05.713Z,13.05
2019-05-22T10:16:35.747Z,11.57
2019-05-22T10:19:06.418Z,11.10
2019-05-22T10:21:37.490Z,9.00
2019-05-22T10:24:08.074Z,7.60
2019-05-22T10:26:38.116Z,10.72
2019-05-22T10:29:09.389Z,12.43
2019-05-22T10:31:39.893Z,11.85
2019-05-22T10:34:10.015Z,12.40
2019-05-22T10:36:43.100Z,11.95
2019-05-22T10:39:12.324Z,14.33
2019-05-22T10:41:42.650Z,16.00
2019-05-22T10:44:13.117Z,12.13
2019-05-22T10:46:44.262Z,12.37
2019-05-22T10:49:14.871Z,14.68
2019-05-22T10:51:45.475Z,14.07
2019-05-22T10:54:16.469Z,13.03
2019-05-22T10:56:46.714Z,21.27
2019-05-22T10:59:16.835Z,13.95
2019-05-22T11:01:47.314Z,15.15
2019-05-22T11:04:19.723Z,13.20
2019-05-22T11:06:51.030Z,13.32
2019-05-22T11:09:22.283Z,17.77
2019-05-22T11:11:53.231Z,14.83
2019-05-22T11:14:23.759Z,14.38
2019-05-22T11:16:54.459Z,11.53
2019-05-22T11:19:24.859Z,16.50
2019-05-22T11:21:57.134Z,13.72
2019-05-22T11:24:27.800Z,13.18
2019-05-22T11:26:58.002Z,19.87
2019-05-22T11:29:28.864Z,19.80
2019-05-22T11:31:59.047Z,14.30
2019-05-22T11:34:29.205Z,11.28
2019-05-22T11:37:00.530Z,15.43
2019-05-22T11:39:39.678Z,13.70
2019-05-22T11:42:03.025Z,13.48
2019-05-22T11:44:33.124Z,9.58
2019-05-22T11:47:03.900Z,15.53
2019-05-22T11:49:34.341Z,12.10
2019-05-22T11:52:05.726Z,12.15
2019-05-22T11:54:36.298Z,15.63
2019-05-22T11:57:06.330Z,11.43
2019-05-22T11:59:37.143Z,10.32
2019-05-22T12:02:09.438Z,15.58
2019-05-22T12:04:47.829Z,16.75
2019-05-22T12:07:13.078Z,13.18
2019-05-22T12:09:43.650Z,17.77
2019-05-22T12:12:14.136Z,14.15
2019-05-22T12:14:44.237Z,11.33
2019-05-22T12:17:14.980Z,10.75
2019-05-22T12:19:46.278Z,16.65
2019-05-22T12:22:19.835Z,11.22
2019-05-22T12:24:48.785Z,11.03
2019-05-22T12:27:19.487Z,15.15
2019-05-22T12:29:50.166Z,13.53
2019-05-22T12:32:20.609Z,11.93
2019-05-22T12:34:50.787Z,15.10
2019-05-22T12:37:21.597Z,13.88
2019-05-22T12:39:52.719Z,16.25
2019-05-22T12:42:24.193Z,12.23
2019-05-22T12:44:54.651Z,13.32
2019-05-22T12:47:25.991Z,15.70
2019-05-22T12:49:56.551Z,15.98
2019-05-22T12:52:26.650Z,12.55
2019-05-22T12:54:57.046Z,13.55
2019-05-22T12:57:27.234Z,13.55
2019-05-22T13:00:02.186Z,16.35
2019-05-22T13:02:31.407Z,18.45
2019-05-22T13:05:01.852Z,12.23
2019-05-22T13:07:31.903Z,15.38
2019-05-22T13:10:03.380Z,15.63
2019-05-22T13:12:34.483Z,14.20
2019-05-22T13:15:10.247Z,13.60
2019-05-22T13:17:39.167Z,15.45
2019-05-22T13:20:10.814Z,15.83
2019-05-22T13:22:45.477Z,17.80
2019-05-22T13:25:18.386Z,14.40
2019-05-22T13:27:51.248Z,15.58
2019-05-22T13:30:28.236Z,14.85
2019-05-22T13:32:57.166Z,17.25
2019-05-22T13:35:29.352Z,20.23
2019-05-22T13:37:59.658Z,19.82
2019-05-22T13:40:30.510Z,17.35
2019-05-22T13:43:01.506Z,24.30
2019-05-22T13:45:33.082Z,21.70
2019-05-22T13:48:05.107Z,19.57
2019-05-22T13:50:35.538Z,13.18
2019-05-22T13:53:08.512Z,20.45
2019-05-22T13:55:38.793Z,16.75
2019-05-22T13:58:11.152Z,19.48
2019-05-22T14:00:41.948Z,16.67
2019-05-22T14:03:12.533Z,19.82
2019-05-22T14:05:43.489Z,18.17
2019-05-22T14:08:14.450Z,16.40
2019-05-22T14:11:04.684Z,15.90
2019-05-22T14:13:35.531Z,16.12
2019-05-22T14:16:06.087Z,16.73
2019-05-22T14:18:36.397Z,20.30
2019-05-22T14:21:06.592Z,20.10
2019-05-22T14:23:37.291Z,15.08
2019-05-22T14:26:07.469Z,16.37
2019-05-22T14:28:38.027Z,18.30
2019-05-22T14:31:08.202Z,17.95
2019-05-22T14:33:40.543Z,16.23
2019-05-22T14:36:11.008Z,15.85
2019-05-22T14:38:41.692Z,15.13
2019-05-22T14:41:12.094Z,19.67
2019-05-22T14:43:42.346Z,16.73
2019-05-22T14:46:12.940Z,19.25
2019-05-22T14:48:43.155Z,14.90
2019-05-22T14:51:14.119Z,14.33
2019-05-22T14:53:46.070Z,14.18
2019-05-22T14:56:16.782Z,14.13
2019-05-22T14:58:47.195Z,14.35
2019-05-22T15:01:17.454Z,15.30
2019-05-22T15:03:47.633Z,14.00
2019-05-22T15:06:17.743Z,13.50
2019-05-22T15:08:47.922Z,16.50
2019-05-22T15:11:18.105Z,18.23
2019-05-22T15:13:48.559Z,18.10
2019-05-22T15:16:18.778Z,16.75
2019-05-22T15:18:48.945Z,16.55
2019-05-22T15:21:20.237Z,18.90
2019-05-22T15:23:51.090Z,14.35
2019-05-22T15:26:21.997Z,21.33
2019-05-22T15:28:52.255Z,21.25
2019-05-22T15:31:22.851Z,19.80
2019-05-22T15:33:53.204Z,17.65
2019-05-22T15:36:24.169Z,18.55
2019-05-22T15:38:54.877Z,18.75
2019-05-22T15:41:26.718Z,16.67
2019-05-22T15:43:57.744Z,14.10
2019-05-22T15:46:28.784Z,16.40
2019-05-22T15:48:59.827Z,15.90
2019-05-22T15:51:32.539Z,14.45
2019-05-22T15:54:06.679Z,15.93
2019-05-22T15:56:38.087Z,17.52
2019-05-22T15:59:10.205Z,15.20
2019-05-22T16:01:41.596Z,12.35
2019-05-22T16:04:15.126Z,13.32
2019-05-22T16:06:46.315Z,13.28
2019-05-22T16:09:18.081Z,16.95
2019-05-22T16:11:51.592Z,16.10
2019-05-22T16:14:22.165Z,17.80
2019-05-22T16:16:53.037Z,14.53
2019-05-22T16:19:25.661Z,17.20
2019-05-22T16:21:58.822Z,12.83
2019-05-22T16:24:29.679Z,13.08
2019-05-22T16:27:00.883Z,15.00
2019-05-22T16:29:31.820Z,14.47
2019-05-22T16:32:04.389Z,16.73
2019-05-22T16:34:35.677Z,14.27
2019-05-22T16:37:06.516Z,15.08
2019-05-22T16:39:40.110Z,17.02
2019-05-22T16:42:10.955Z,15.75
2019-05-22T16:44:42.401Z,11.95
2019-05-22T16:47:13.648Z,13.93
2019-05-22T16:49:45.503Z,12.23
2019-05-22T16:52:16.515Z,13.43
2019-05-22T16:54:47.559Z,11.45
2019-05-22T16:57:17.582Z,10.25
2019-05-22T16:59:48.031Z,17.95
2019-05-22T17:02:19.005Z,13.15
2019-05-22T17:04:49.284Z,10.25
2019-05-22T17:07:20.232Z,9.30
2019-05-22T17:09:51.698Z,15.20
2019-05-22T17:12:23.445Z,12.15
2019-05-22T17:14:54.617Z,13.03
2019-05-22T17:17:24.686Z,14.20
2019-05-22T17:19:55.135Z,8.63
2019-05-22T17:22:26.398Z,13.85
2019-05-22T17:24:57.573Z,12.93
2019-05-22T17:27:29.044Z,11.12
2019-05-22T17:30:00.707Z,14.58
2019-05-22T17:32:30.957Z,15.53
2019-05-22T17:35:01.776Z,10.80
2019-05-22T17:37:33.961Z,11.38
2019-05-22T17:40:07.195Z,12.58
2019-05-22T17:42:38.493Z,11.03
2019-05-22T17:45:11.959Z,14.20
2019-05-22T17:47:43.243Z,13.90
2019-05-22T17:50:26.056Z,13.03
2019-05-22T17:52:49.069Z,15.30
2019-05-22T17:55:20.950Z,16.57
2019-05-22T17:57:51.126Z,14.60
2019-05-22T18:00:23.554Z,13.10
2019-05-22T18:02:53.749Z,10.28
2019-05-22T18:05:25.874Z,9.75
2019-05-22T18:07:56.674Z,8.55
2019-05-22T18:10:28.526Z,10.78
2019-05-22T18:12:58.654Z,8.25
2019-05-22T18:15:29.328Z,7.95
2019-05-22T18:17:59.531Z,5.62
2019-05-22T18:20:42.279Z,7.58
2019-05-22T18:23:02.291Z,2.65
2019-05-22T18:25:32.923Z,2.75
2019-05-22T18:28:04.992Z,3.95
2019-05-22T18:30:45.421Z,3.83
2019-05-22T18:33:16.534Z,4.85
2019-05-22T18:35:46.797Z,3.95
2019-05-22T18:38:17.275Z,5.42
2019-05-22T18:40:47.396Z,5.10
2019-05-22T18:43:19.011Z,7.03
2019-05-22T18:45:49.855Z,3.10
2019-05-22T18:48:19.893Z,7.30
2019-05-22T18:50:50.608Z,6.58
2019-05-22T18:53:21.261Z,4.80
2019-05-22T18:55:51.614Z,6.95
2019-05-22T18:58:21.715Z,5.22
2019-05-22T19:00:51.803Z,5.15
2019-05-22T19:03:22.890Z,7.50
2019-05-22T19:05:53.458Z,5.20
2019-05-22T19:08:24.849Z,4.17
2019-05-22T19:10:55.482Z,4.12
2019-05-22T19:13:26.122Z,5.30
2019-05-22T19:15:56.220Z,6.12
2019-05-22T19:18:27.785Z,3.83
2019-05-22T19:20:58.031Z,7.15
2019-05-22T19:23:28.567Z,5.75
2019-05-22T19:25:58.706Z,4.62
2019-05-22T19:28:42.811Z,3.70
2019-05-22T19:31:01.542Z,2.67
2019-05-22T19:33:31.734Z,7.83
2019-05-22T19:36:01.843Z,4.67
2019-05-22T19:38:32.108Z,3.87
2019-05-22T19:41:02.744Z,6.08
2019-05-22T19:43:33.425Z,3.15
2019-05-22T19:46:03.933Z,4.20
2019-05-22T19:48:34.028Z,6.70
2019-05-22T19:51:04.965Z,6.12
2019-05-22T19:53:35.643Z,4.50
2019-05-22T19:56:06.558Z,9.43
2019-05-22T19:58:37.791Z,4.60
2019-05-22T20:01:08.243Z,9.83
2019-05-22T20:03:38.641Z,7.70
2019-05-22T20:06:09.328Z,7.95
2019-05-22T20:08:40.946Z,5.17
2019-05-22T20:11:11.113Z,6.28
2019-05-22T20:13:41.488Z,5.50
2019-05-22T20:16:11.661Z,6.97
2019-05-22T20:18:42.003Z,6.72
2019-05-22T20:21:12.111Z,10.48
2019-05-22T20:23:43.375Z,8.30
2019-05-22T20:26:13.545Z,10.35
2019-05-22T20:28:43.655Z,5.70
2019-05-22T20:31:14.409Z,10.18
2019-05-22T20:33:44.902Z,8.68
2019-05-22T20:36:15.433Z,7.53
2019-05-22T20:38:45.774Z,11.97
2019-05-22T20:41:16.152Z,10.58
2019-05-22T20:43:48.198Z,9.73
2019-05-22T20:46:21.965Z,8.55
2019-05-22T20:48:52.787Z,9.63
2019-05-22T20:51:23.460Z,9.55
2019-05-22T20:53:55.054Z,11.57
2019-05-22T20:56:27.728Z,10.72
2019-05-22T20:58:59.381Z,13.23
2019-05-22T21:01:30.326Z,10.60
2019-05-22T21:04:04.614Z,9.88
2019-05-22T21:06:44.430Z,12.50
2019-05-22T21:09:14.685Z,12.88
2019-05-22T21:11:45.271Z,11.30
2019-05-22T21:14:15.609Z,14.53
2019-05-22T21:16:46.826Z,12.18
2019-05-22T21:19:17.025Z,14.63
2019-05-22T21:21:48.466Z,13.55
2019-05-22T21:24:18.881Z,13.40
2019-05-22T21:26:49.010Z,16.82
2019-05-22T21:29:20.012Z,11.15
2019-05-22T21:31:50.590Z,11.95
2019-05-22T21:34:21.501Z,16.75
2019-05-22T21:36:51.676Z,12.05
2019-05-22T21:39:21.890Z,13.35
2019-05-22T21:41:53.146Z,14.15
2019-05-22T21:44:23.688Z,15.03
2019-05-22T21:46:54.626Z,16.02
2019-05-22T21:49:26.075Z,14.23
2019-05-22T21:51:56.205Z,19.02
2019-05-22T21:54:26.398Z,14.15
2019-05-22T21:56:56.503Z,17.45
2019-05-22T21:59:26.853Z,16.17
2019-05-22T22:01:58.991Z,18.10
2019-05-22T22:04:32.018Z,21.12
2019-05-22T22:07:04.064Z,18.00
2019-05-22T22:09:34.185Z,21.02
2019-05-22T22:12:08.179Z,23.05
2019-05-22T22:14:38.290Z,23.00
2019-05-22T22:17:10.370Z,28.17
2019-05-22T22:19:41.078Z,26.97
2019-05-22T22:22:14.266Z,24.45
2019-05-22T22:24:44.857Z,22.00
2019-05-22T22:27:15.021Z,17.55
2019-05-22T22:29:45.292Z,18.75
2019-05-22T22:32:16.853Z,16.12
2019-05-22T22:34:49.987Z,20.77
2019-05-22T22:37:21.405Z,13.38
2019-05-22T22:39:54.812Z,13.72
2019-05-22T22:42:29.281Z,18.23
2019-05-22T22:45:03.674Z,18.52
2019-05-22T22:47:36.514Z,16.00
2019-05-22T22:50:08.487Z,19.98
2019-05-22T22:52:40.306Z,18.12
2019-05-22T22:55:14.354Z,16.05
2019-05-22T22:57:47.016Z,17.70
2019-05-22T23:00:19.636Z,17.47
2019-05-22T23:02:50.684Z,18.90
2019-05-22T23:05:21.274Z,15.98
2019-05-22T23:07:51.681Z,15.05
2019-05-22T23:10:23.116Z,17.73
2019-05-22T23:12:55.076Z,18.37
2019-05-22T23:15:26.805Z,13.83
2019-05-22T23:17:58.201Z,17.35
2019-05-22T23:20:27.525Z,14.30
2019-05-22T23:22:57.457Z,20.85
2019-05-22T23:25:27.914Z,15.25
2019-05-22T23:27:57.954Z,16.25
2019-05-22T23:30:29.260Z,11.43
2019-05-22T23:32:59.818Z,16.67
2019-05-22T23:35:31.468Z,17.98
2019-05-22T23:38:03.478Z,16.77
2019-05-22T23:40:36.437Z,14.65
2019-05-22T23:43:07.725Z,15.63
2019-05-22T23:45:37.846Z,16.95
2019-05-22T23:48:11.716Z,14.20
2019-05-22T23:50:43.370Z,13.55
2019-05-22T23:53:13.708Z,12.63
2019-05-22T23:55:44.003Z,15.72
2019-05-22T23:58:16.116Z,11.90
